CheckWX is a tool to help pilots better visualize weather data.  It is not intended as a substitute for an official pre-flight weather briefing.

14:34:31 UTC

KLBE METAR
Arnold Palmer Regional Airport
Latrobe, Pennsylvania, USA
Current

45 mins ago

KLBE 291350Z 18010KT 10SM SCT080 BKN100 21/15 A2974
Observed
Mar-29 @ 13:50 UTC
Wind
  • 180° at 10 KTS
Visibility
10 SM
Flight Rules
VFR
Cloud Levels
  • Scattered at 8,000' AGL
  • Broken at 10,000' AGL
Temperature
21°C / 70°F
Dewpoint
15°C / 59°F
Humidity
69%
Altimeter
29.74" Hg
Pressure
1007.12 hPa
Previous

2 hours ago

KLBE 291250Z 18010KT 10SM SCT070 BKN095 19/14 A2978
Observed
Mar-29 @ 12:50 UTC
Wind
  • 180° at 10 KTS
Visibility
10 SM
Flight Rules
VFR
Cloud Levels
  • Scattered at 7,000' AGL
  • Broken at 9,500' AGL
Temperature
19°C / 66°F
Dewpoint
14°C / 57°F
Humidity
73%
Altimeter
29.78" Hg
Pressure
1008.42 hPa
Previous

3 hours ago

KLBE 291150Z 21011KT 10SM BKN100 19/14 A2979
Observed
Mar-29 @ 11:50 UTC
Wind
  • 210° at 11 KTS
Visibility
10 SM
Flight Rules
VFR
Cloud Levels
  • Broken at 10,000' AGL
Temperature
19°C / 66°F
Dewpoint
14°C / 57°F
Humidity
73%
Altimeter
29.79" Hg
Pressure
1008.82 hPa